KPGV/PGV METAR and TAF weather

Enter ICAO airport designator
Station Type Date Time Source
KPGV METAR 2019/06/18 04:50 UTC NOAA

KPGV 180450Z AUTO 20006KT 10SM CLR 25/20 A3006 RMK AO2


Station Type Date Time Source
KPGV Decoded METAR 2019/06/18 04:50 UTC NOAA

Pitt-Greenville Airport, NC, United States (KPGV) 35-38N 077-24W
Jun 18, 2019 - 12:50 AM EDT / 2019.06.18 0450 UTC
Wind: from the SSW (200 degrees) at 7 MPH (6 KT):0
Visibility: 10 mile(s):0
Sky conditions: clear
Temperature: 77 F (25 C)
Dew Point: 68 F (20 C)
Relative Humidity: 73%
Pressure (altimeter): 30.06 in. Hg (1017 hPa)
ob: KPGV 180450Z AUTO 20006KT 10SM CLR 25/20 A3006 RMK AO2
cycle: 5

Station Type Date Time Source
KPGV TAF 2019/06/17 18:28 UTC NOAA

TAF KPGV 171726Z 1718/1818 23010G16KT P6SM SCT045
FM172100 19011G20KT P6SM VCTS SCT050CB
FM172300 19010KT P6SM SCT050
FM181300 22010G16KT P6SM SCT200
AMD LTD TO CLD VIS AND WIND

Example: see airport list